Terminal Aerodrome Forecast
Issued by NWS

Home | Current Version | Previous Version | Graphics & Text | Print | Product List | Glossary On
Versions: 1 2 3 4 5 6 7 8 9 10 11 12 13 14 15 16 17 18 19 20 21 22 23
000
FTUS43 KSGF 262050 AAB
TAFJLN
TAF AMD
KJLN 262050Z 2621/2718 35010KT P6SM VCSH BKN008 OVC015
     FM262300 33007KT P6SM OVC015
     FM270900 VRB04KT P6SM SCT250
      TEMPO 2710/2714 4SM BR
     FM271500 22005KT P6SM SCT250=

USA.gov is the U.S. government's official web portal to all federal, state and local government web resources and services.